Time;durP1;ratioP1;P1;durP2;ratioP2;P2;SDS_P1;SDS_P2;PMS_P1;PMS_P2;Temp;Humidity;BMP_temperature;BMP_pressure;BME280_temperature;BME280_humidity;BME280_pressure;Samples;Min_cycle;Max_cycle;Signal;HPM_P1;HPM_P2
2022/04/04 04:22:36;;;;;;;20.75;9.15;;;;;;;-3.83;100.00;100713.34;5109174;27;20113;-73
2022/04/04 04:25:04;;;;;;;16.10;9.38;;;;;;;-3.79;100.00;100714.03;5109443;28;20104;-73
2022/04/04 04:27:29;;;;;;;17.75;10.02;;;;;;;-3.73;100.00;100710.31;5109298;28;20036;-73
2022/04/04 04:29:55;;;;;;;18.23;10.00;;;;;;;-3.67;100.00;100710.03;5109255;28;20054;-73
2022/04/04 04:32:21;;;;;;;18.55;10.07;;;;;;;-3.66;100.00;100712.56;5109016;28;20032;-73
2022/04/04 04:34:50;;;;;;;20.15;10.93;;;;;;;-3.63;100.00;100712.44;5109622;28;20036;-72
2022/04/04 04:37:21;;;;;;;25.02;11.15;;;;;;;-3.61;100.00;100710.59;5109441;28;20450;-72
2022/04/04 04:39:47;;;;;;;22.17;12.73;;;;;;;-3.60;100.00;100701.84;5091411;28;20454;-71
2022/04/04 04:42:13;;;;;;;31.27;13.32;;;;;;;-3.55;100.00;100707.69;5107610;28;20085;-73
2022/04/04 04:44:39;;;;;;;19.63;10.88;;;;;;;-3.57;100.00;100704.34;5108901;28;20435;-73
2022/04/04 04:47:05;;;;;;;21.38;9.95;;;;;;;-3.52;100.00;100709.34;5108869;28;20046;-72
2022/04/04 04:49:32;;;;;;;18.95;10.30;;;;;;;-3.51;100.00;100704.97;5108807;28;20086;-72
2022/04/04 04:51:58;;;;;;;22.83;11.18;;;;;;;-3.51;100.00;100705.81;5108566;28;20050;-72
2022/04/04 04:54:26;;;;;;;31.50;13.05;;;;;;;-3.48;100.00;100704.81;5108807;28;20031;-72
2022/04/04 04:56:52;;;;;;;25.75;10.60;;;;;;;-3.55;100.00;100699.88;5108780;28;20032;-73
2022/04/04 04:59:17;;;;;;;17.85;9.82;;;;;;;-3.53;100.00;100698.97;5107311;28;20111;-73
2022/04/04 05:01:43;;;;;;;17.33;8.63;;;;;;;-3.60;100.00;100695.81;5108381;28;20103;-73
2022/04/04 05:04:09;;;;;;;17.38;9.20;;;;;;;-3.60;100.00;100699.25;5108619;28;20035;-73
2022/04/04 05:06:34;;;;;;;18.33;9.45;;;;;;;-3.60;100.00;100699.25;5090145;28;20040;-73
2022/04/04 05:09:00;;;;;;;19.10;8.95;;;;;;;-3.59;100.00;100700.09;5108627;28;20522;-73
2022/04/04 05:11:26;;;;;;;20.30;9.77;;;;;;;-3.58;100.00;100702.66;5108321;28;20028;-73
2022/04/04 05:13:52;;;;;;;17.05;9.00;;;;;;;-3.55;100.00;100697.28;5109596;28;20473;-73
2022/04/04 05:16:18;;;;;;;19.33;10.35;;;;;;;-3.57;100.00;100699.13;5108314;28;20180;-73
2022/04/04 05:18:44;;;;;;;18.67;9.20;;;;;;;-3.53;100.00;100698.97;5108232;28;20032;-72
2022/04/04 05:21:11;;;;;;;15.73;8.25;;;;;;;-3.52;100.00;100703.25;5108023;28;20043;-73
2022/04/04 05:23:38;;;;;;;16.77;8.82;;;;;;;-3.55;99.24;100705.09;5107915;28;20051;-72
2022/04/04 05:26:03;;;;;;;16.75;9.20;;;;;;;-3.47;99.08;100711.69;5108021;28;20028;-72
2022/04/04 05:28:29;;;;;;;19.13;10.32;;;;;;;-3.46;98.19;100708.16;5107990;28;20043;-71
2022/04/04 05:30:56;;;;;;;22.40;8.85;;;;;;;-3.42;98.51;100712.34;5108166;28;20365;-73
2022/04/04 05:33:22;;;;;;;17.73;9.40;;;;;;;-3.36;98.08;100712.88;5096215;28;20043;-72
2022/04/04 05:35:48;;;;;;;22.73;10.10;;;;;;;-3.27;99.96;100708.97;5094285;28;20040;-72
2022/04/04 05:38:14;;;;;;;21.20;9.75;;;;;;;-3.26;98.39;100713.31;5093242;28;20043;-72
2022/04/04 05:40:41;;;;;;;23.77;11.48;;;;;;;-3.21;98.27;100716.50;5094008;28;20028;-72
2022/04/04 05:43:07;;;;;;;19.73;9.40;;;;;;;-3.12;98.09;100723.06;5093854;28;20039;-72
2022/04/04 05:45:35;;;;;;;20.25;10.60;;;;;;;-3.01;98.03;100721.59;5094113;28;20035;-72
2022/04/04 05:48:02;;;;;;;21.60;10.65;;;;;;;-2.92;96.82;100722.91;5092950;28;20170;-72
2022/04/04 05:50:28;;;;;;;21.85;10.90;;;;;;;-2.86;98.36;100722.63;5093050;28;20080;-73
2022/04/04 05:52:54;;;;;;;24.42;12.13;;;;;;;-2.71;96.83;100723.59;5093849;28;20074;-73
2022/04/04 05:55:20;;;;;;;20.77;10.45;;;;;;;-2.58;96.66;100718.59;5093874;28;20486;-72
2022/04/04 05:57:46;;;;;;;29.88;12.20;;;;;;;-2.48;95.57;100712.84;5093886;28;20040;-72
2022/04/04 06:00:16;;;;;;;22.58;10.63;;;;;;;-2.31;96.43;100716.34;5075884;28;20036;-72
2022/04/04 06:02:43;;;;;;;21.17;10.45;;;;;;;-2.19;95.49;100710.47;5093549;28;20039;-72
2022/04/04 06:05:09;;;;;;;23.90;10.70;;;;;;;-2.06;93.85;100710.69;5092593;28;20070;-71
2022/04/04 06:07:35;;;;;;;20.92;10.00;;;;;;;-2.00;95.22;100695.53;5093726;28;20569;-71
2022/04/04 06:10:03;;;;;;;21.40;10.52;;;;;;;-1.79;92.47;100703.97;5093634;28;20063;-71
2022/04/04 06:12:29;;;;;;;19.73;9.63;;;;;;;-1.59;91.71;100702.88;5092214;28;20032;-71
2022/04/04 06:14:55;;;;;;;24.92;10.93;;;;;;;-1.58;92.14;100698.50;5093927;28;20118;-71
2022/04/04 06:17:20;;;;;;;21.75;10.05;;;;;;;-1.42;90.39;100705.41;5093751;28;20032;-71
2022/04/04 06:19:46;;;;;;;20.92;10.60;;;;;;;-1.22;90.43;100700.84;5093587;28;20103;-72
2022/04/04 06:22:12;;;;;;;22.35;10.35;;;;;;;-1.02;87.99;100713.59;5092989;28;20040;-71
2022/04/04 06:24:38;;;;;;;17.95;9.73;;;;;;;-0.93;88.49;100705.22;5093436;28;20068;-71
2022/04/04 06:27:04;;;;;;;21.38;10.52;;;;;;;-0.82;87.18;100707.22;5093361;28;20059;-71
2022/04/04 06:29:30;;;;;;;17.60;8.55;;;;;;;-0.70;87.07;100710.91;5092138;28;20473;-71
2022/04/04 06:31:56;;;;;;;20.67;10.18;;;;;;;-0.54;84.65;100711.66;5091956;28;20042;-71
2022/04/04 06:34:22;;;;;;;18.38;9.98;;;;;;;-0.45;86.03;100703.28;5093351;28;20042;-72
2022/04/04 06:36:48;;;;;;;21.73;10.18;;;;;;;-0.41;85.04;100712.63;5093344;28;20404;-71
2022/04/04 06:39:15;;;;;;;14.48;8.65;;;;;;;-0.33;84.35;100710.41;5093272;28;20063;-69
2022/04/04 06:41:41;;;;;;;18.70;9.77;;;;;;;-0.19;83.39;100704.31;5092387;28;20036;-74
2022/04/04 06:44:07;;;;;;;18.27;9.38;;;;;;;0.07;85.14;100707.13;5090359;28;20032;-73
2022/04/04 06:46:36;;;;;;;20.20;10.07;;;;;;;0.16;82.29;100707.38;5091449;28;20028;-71
2022/04/04 06:49:02;;;;;;;17.45;9.45;;;;;;;0.29;82.45;100706.63;5092894;28;20123;-71
2022/04/04 06:51:28;;;;;;;15.70;9.50;;;;;;;0.21;80.08;100709.72;5092417;28;20044;-72
2022/04/04 06:53:54;;;;;;;17.73;10.00;;;;;;;0.31;80.57;100696.88;5091260;28;20453;-72
2022/04/04 06:56:19;;;;;;;20.00;11.13;;;;;;;0.39;80.59;100700.72;5092933;28;20040;-72
2022/04/04 06:58:45;;;;;;;21.80;9.68;;;;;;;0.38;79.50;100698.16;5093011;28;20081;-71
2022/04/04 07:01:11;;;;;;;24.70;10.70;;;;;;;0.61;81.43;100694.94;5093064;28;20047;-71
2022/04/04 07:03:37;;;;;;;18.88;9.48;;;;;;;0.80;79.19;100700.66;5092493;28;20028;-74
2022/04/04 07:06:03;;;;;;;19.85;9.45;;;;;;;0.82;78.30;100697.94;5074537;28;20036;-72
2022/04/04 07:08:28;;;;;;;23.33;9.23;;;;;;;0.75;75.17;100697.50;5092663;28;20050;-70
2022/04/04 07:10:54;;;;;;;21.52;10.25;;;;;;;0.89;74.92;100698.38;5092828;28;20170;-72
2022/04/04 07:13:19;;;;;;;16.88;8.65;;;;;;;0.93;72.46;100692.00;5092402;28;20036;-72
2022/04/04 07:15:45;;;;;;;18.42;9.25;;;;;;;0.89;72.07;100696.59;5092625;28;20039;-71
2022/04/04 07:18:12;;;;;;;19.23;8.52;;;;;;;1.09;73.33;100692.66;5092547;28;20039;-72
2022/04/04 07:20:38;;;;;;;20.80;9.43;;;;;;;1.31;71.01;100689.47;5090995;28;20036;-72
2022/04/04 07:23:05;;;;;;;18.55;9.25;;;;;;;1.45;71.38;100689.38;5092271;28;20032;-72
2022/04/04 07:25:31;;;;;;;14.15;8.55;;;;;;;1.64;70.87;100691.56;5092282;28;20089;-72
2022/04/04 07:27:57;;;;;;;22.40;11.95;;;;;;;1.63;69.49;100688.13;5092349;28;20040;-73
2022/04/04 07:30:23;;;;;;;19.08;9.68;;;;;;;1.70;68.81;100691.16;5092475;28;20039;-72
2022/04/04 07:32:50;;;;;;;20.10;9.80;;;;;;;1.87;70.29;100676.84;5091962;28;20081;-73
2022/04/04 07:35:17;;;;;;;17.67;10.25;;;;;;;2.01;68.38;100670.63;5090837;28;20334;-73
2022/04/04 07:37:46;;;;;;;22.75;10.90;;;;;;;1.98;68.88;100665.59;5092198;28;20040;-72
2022/04/04 07:40:15;;;;;;;17.98;10.70;;;;;;;2.06;67.92;100666.72;5090929;28;20541;-72
2022/04/04 07:42:43;;;;;;;24.15;11.48;;;;;;;2.27;66.11;100659.09;5091763;28;20068;-72
2022/04/04 07:45:10;;;;;;;20.38;9.93;;;;;;;2.34;66.27;100659.47;5090811;28;20039;-73
2022/04/04 07:47:37;;;;;;;18.67;10.27;;;;;;;2.34;65.78;100652.44;5090917;28;20378;-73
2022/04/04 07:50:04;;;;;;;23.38;10.48;;;;;;;2.42;65.63;100647.47;5090721;28;20063;-72
2022/04/04 07:52:29;;;;;;;22.02;9.35;;;;;;;2.59;63.44;100645.41;5091715;28;20028;-73
2022/04/04 07:54:55;;;;;;;19.20;10.10;;;;;;;2.64;64.64;100643.28;5091827;28;20508;-72
2022/04/04 07:57:21;;;;;;;20.52;9.75;;;;;;;2.81;66.62;100647.31;5091817;28;20032;-72
2022/04/04 07:59:49;;;;;;;16.30;9.98;;;;;;;2.93;63.98;100638.47;5091879;28;20069;-72
2022/04/04 08:02:15;;;;;;;20.13;10.13;;;;;;;3.01;64.15;100643.19;5091494;28;20032;-72
2022/04/04 08:04:41;;;;;;;16.08;9.50;;;;;;;3.08;62.49;100641.78;5090480;28;20064;-72
2022/04/04 08:07:06;;;;;;;21.63;11.15;;;;;;;3.24;63.28;100639.66;5091803;28;20511;-72
2022/04/04 08:09:32;;;;;;;20.25;9.93;;;;;;;3.41;62.92;100639.19;5091659;28;20048;-72
2022/04/04 08:11:57;;;;;;;18.42;10.55;;;;;;;3.52;62.75;100638.34;5091516;28;20040;-73
2022/04/04 08:14:23;;;;;;;16.75;9.43;;;;;;;3.74;60.89;100637.56;5091739;28;20519;-72
2022/04/04 08:16:50;;;;;;;20.48;11.05;;;;;;;3.81;61.79;100641.38;5090186;28;20040;-72
2022/04/04 08:19:17;;;;;;;19.20;10.48;;;;;;;4.09;61.62;100627.69;5092045;28;20036;-72
2022/04/04 08:21:44;;;;;;;19.80;10.07;;;;;;;4.22;64.07;100627.53;5089976;28;20519;-73
2022/04/04 08:24:14;;;;;;;19.25;9.73;;;;;;;4.49;61.03;100628.91;5073528;28;20134;-71
2022/04/04 08:26:40;;;;;;;17.23;10.25;;;;;;;4.52;58.46;100618.13;5091350;28;20036;-71
2022/04/04 08:29:08;;;;;;;18.90;9.77;;;;;;;4.71;57.43;100626.22;5091515;28;20107;-72
2022/04/04 08:31:35;;;;;;;16.17;9.60;;;;;;;4.72;55.16;100624.41;5057139;28;20064;-72
2022/04/04 08:34:01;;;;;;;16.33;9.00;;;;;;;4.65;54.71;100613.50;5091487;28;20440;-72
2022/04/04 08:36:27;;;;;;;17.23;8.98;;;;;;;4.75;56.79;100608.31;5091389;28;20051;-73
2022/04/04 08:38:53;;;;;;;17.63;9.43;;;;;;;5.00;54.64;100607.94;5091361;28;20036;-72
2022/04/04 08:41:21;;;;;;;17.33;9.40;;;;;;;4.95;54.33;100604.84;5089992;28;20044;-72
2022/04/04 08:43:49;;;;;;;18.45;9.82;;;;;;;4.98;54.45;100601.97;5091243;28;20039;-71
2022/04/04 08:46:16;;;;;;;20.13;9.35;;;;;;;5.10;55.44;100593.00;5073141;28;20036;-72
2022/04/04 08:48:42;;;;;;;15.13;9.55;;;;;;;5.40;53.86;100596.63;5091455;28;20036;-72
2022/04/04 08:51:08;;;;;;;21.75;9.85;;;;;;;5.41;52.83;100590.38;5091320;28;20028;-72
2022/04/04 08:53:35;;;;;;;17.13;9.45;;;;;;;5.54;52.85;100584.88;5091026;28;20118;-72
2022/04/04 08:56:03;;;;;;;16.15;8.60;;;;;;;5.51;53.18;100586.00;5091204;28;20036;-72
2022/04/04 08:58:30;;;;;;;20.80;10.50;;;;;;;5.86;53.91;100574.97;5073101;28;20140;-72
2022/04/04 09:00:55;;;;;;;22.10;9.27;;;;;;;6.13;53.40;100571.75;5089721;28;20044;-72
2022/04/04 09:03:29;;;;;;;17.08;8.60;;;;;;;6.38;51.89;100570.38;5090866;28;20066;-72
2022/04/04 09:05:59;;;;;;;16.38;9.70;;;;;;;6.50;50.16;100563.13;5091147;28;20441;-73
2022/04/04 09:08:30;;;;;;;12.65;7.90;;;;;;;6.59;49.41;100562.31;5091952;28;20055;-73
2022/04/04 09:11:00;;;;;;;16.50;9.05;;;;;;;6.79;49.36;100556.03;5093665;28;20028;-72
2022/04/04 09:13:28;;;;;;;16.75;8.70;;;;;;;6.90;49.24;100560.31;5094676;28;20491;-72
2022/04/04 09:15:56;;;;;;;14.55;8.40;;;;;;;7.00;49.52;100552.38;5093617;28;20040;-73
2022/04/04 09:18:37;;;;;;;16.67;8.65;;;;;;;7.18;47.10;100552.47;5094743;28;20431;-72
2022/04/04 09:21:05;;;;;;;16.92;8.48;;;;;;;7.25;46.59;100540.31;5094786;28;20048;-73
2022/04/04 09:23:46;;;;;;;17.02;8.10;;;;;;;7.35;48.88;100533.97;5094437;28;20035;-72
2022/04/04 09:26:43;;;;;;;14.80;8.30;;;;;;;7.63;48.07;100523.41;5094617;28;20070;-72
2022/04/04 09:29:20;;;;;;;17.20;9.10;;;;;;;7.47;46.89;100525.84;5094635;28;20043;-71
2022/04/04 09:32:09;;;;;;;16.60;9.00;;;;;;;7.76;47.31;100521.25;5094373;28;20500;-72
2022/04/04 09:34:53;;;;;;;16.02;8.32;;;;;;;8.20;47.90;100518.72;5094765;28;20028;-72
2022/04/04 09:37:21;;;;;;;14.95;8.57;;;;;;;8.55;46.77;100507.28;5093175;28;20043;-73
2022/04/04 09:39:51;;;;;;;21.70;9.27;;;;;;;8.60;43.85;100514.78;5094533;28;20022;-72
2022/04/04 09:42:18;;;;;;;22.65;8.75;;;;;;;8.16;42.97;100506.75;5092704;28;20040;-72
2022/04/04 09:45:00;;;;;;;16.98;9.15;;;;;;;8.37;44.53;100512.59;5094249;28;20027;-73
2022/04/04 09:47:49;;;;;;;13.50;8.43;;;;;;;8.75;45.33;100504.44;5094405;28;20059;-72
2022/04/04 09:50:43;;;;;;;18.00;9.35;;;;;;;9.12;41.11;100494.38;5094143;28;20504;-73
2022/04/04 09:53:20;;;;;;;15.82;8.65;;;;;;;9.57;42.37;100487.09;5091466;28;20416;-73
2022/04/04 09:55:48;;;;;;;16.43;8.63;;;;;;;9.91;40.35;100477.25;5094214;28;20033;-74
2022/04/04 09:58:19;;;;;;;15.38;8.38;;;;;;;10.33;41.17;100473.66;5093986;28;20366;-73
2022/04/04 10:00:46;;;;;;;16.83;8.85;;;;;;;10.70;42.11;100474.97;5093949;28;20411;-73
2022/04/04 10:03:13;;;;;;;18.00;9.43;;;;;;;10.69;39.00;100465.31;5094049;28;20024;-73
2022/04/04 10:05:48;;;;;;;16.88;8.75;;;;;;;10.32;36.44;100450.69;5092510;28;20040;-73
2022/04/04 10:08:17;;;;;;;13.93;8.77;;;;;;;10.53;38.68;100453.66;5092783;28;20044;-73
2022/04/04 10:10:43;;;;;;;14.40;8.88;;;;;;;10.15;37.49;100452.47;5093792;28;20039;-73
2022/04/04 10:13:12;;;;;;;15.07;9.10;;;;;;;10.32;37.48;100445.38;5093506;28;20084;-72
2022/04/04 10:15:38;;;;;;;14.20;8.27;;;;;;;9.95;37.31;100448.47;5093762;28;20196;-73
2022/04/04 10:18:05;;;;;;;14.25;8.73;;;;;;;10.23;39.96;100441.03;5093553;28;20130;-72
2022/04/04 10:20:30;;;;;;;14.45;8.30;;;;;;;9.92;38.52;100439.00;5092164;28;20063;-71
2022/04/04 10:22:57;;;;;;;14.88;8.65;;;;;;;10.20;37.49;100420.88;5093539;28;20036;-70
2022/04/04 10:25:28;;;;;;;12.32;8.57;;;;;;;10.82;36.58;100418.50;5092302;28;20040;-70
2022/04/04 10:27:55;;;;;;;16.10;9.57;;;;;;;10.92;39.14;100426.28;5093506;28;20036;-71
2022/04/04 10:30:36;;;;;;;14.40;9.02;;;;;;;11.02;36.62;100416.28;5092208;28;20036;-71
2022/04/04 10:33:05;;;;;;;13.27;8.68;;;;;;;11.27;36.04;100408.16;5093081;28;20032;-71
2022/04/04 10:35:32;;;;;;;18.30;9.35;;;;;;;11.78;36.18;100403.22;5093592;28;20039;-71
2022/04/04 10:38:03;;;;;;;11.65;7.57;;;;;;;11.86;36.15;100400.50;5092238;28;20036;-72
2022/04/04 10:40:31;;;;;;;13.52;8.82;;;;;;;12.15;35.94;100383.78;5093022;28;20032;-72
2022/04/04 10:43:15;;;;;;;12.52;8.52;;;;;;;12.18;36.71;100384.22;5093008;28;20040;-73
2022/04/04 10:45:58;;;;;;;12.80;8.32;;;;;;;12.27;34.75;100387.69;5093288;28;20499;-72
2022/04/04 10:48:28;;;;;;;13.35;8.48;;;;;;;12.25;34.80;100370.16;5092956;28;20027;-71
2022/04/04 10:50:54;;;;;;;11.65;7.72;;;;;;;11.49;34.71;100375.38;5092889;28;20082;-72
2022/04/04 10:53:41;;;;;;;13.25;8.23;;;;;;;12.16;32.86;100369.41;5093309;28;20036;-71
2022/04/04 10:56:10;;;;;;;12.93;7.63;;;;;;;11.91;34.03;100358.94;5092785;28;20044;-72
2022/04/04 10:58:35;;;;;;;11.18;7.85;;;;;;;12.75;35.38;100356.94;5092932;28;20036;-72
2022/04/04 11:01:20;;;;;;;12.38;8.13;;;;;;;13.15;33.30;100341.41;5092844;28;20032;-71
2022/04/04 11:03:52;;;;;;;11.57;8.20;;;;;;;13.11;34.07;100348.19;5092503;28;20482;-72
2022/04/04 11:09:12;;;;;;;14.50;9.02;;;;;;;12.51;33.44;100327.81;5092634;28;20046;-71
2022/04/04 11:11:48;;;;;;;12.60;8.25;;;;;;;12.86;32.33;100331.59;5092202;28;20043;-72
2022/04/04 11:14:19;;;;;;;15.88;8.70;;;;;;;12.87;33.22;100316.41;5091149;28;20040;-72
2022/04/04 11:17:06;;;;;;;13.45;8.93;;;;;;;12.57;33.20;100321.75;5092416;28;20485;-71
2022/04/04 11:19:48;;;;;;;;;;;;;;;11.74;35.05;100322.69;5093146;28;20423;-71
2022/04/04 11:22:17;;;;;;;15.85;9.68;;;;;;;11.71;35.28;100320.38;5092298;28;20357;-71
2022/04/04 11:24:44;;;;;;;14.13;8.77;;;;;;;12.84;35.39;100306.06;5091413;28;20427;-72
2022/04/04 11:27:10;;;;;;;12.98;8.95;;;;;;;13.66;34.77;100293.22;5092402;28;20043;-71
2022/04/04 11:29:40;;;;;;;11.25;9.10;;;;;;;13.67;33.18;100300.22;5092879;28;20070;-73
2022/04/04 11:32:08;;;;;;;12.85;8.63;;;;;;;13.10;32.80;100295.69;5091770;28;20047;-73
2022/04/04 11:34:37;;;;;;;18.52;9.10;;;;;;;12.33;33.58;100288.13;5092215;28;20027;-72
2022/04/04 11:37:04;;;;;;;13.40;8.20;;;;;;;13.04;34.08;100283.91;5092099;28;20043;-73
2022/04/04 11:39:30;;;;;;;14.75;9.15;;;;;;;12.92;33.99;100289.94;5092437;28;20036;-72
2022/04/04 11:41:56;;;;;;;13.15;9.13;;;;;;;13.18;33.15;100268.03;5090932;28;20040;-72
2022/04/04 11:44:26;;;;;;;13.15;9.02;;;;;;;12.84;34.16;100277.47;5092406;28;20220;-72
2022/04/04 11:47:05;;;;;;;14.55;9.27;;;;;;;13.56;33.60;100263.25;5092259;28;20051;-73
2022/04/04 11:49:35;;;;;;;10.57;8.32;;;;;;;14.24;32.87;100253.69;5092064;28;20032;-72
2022/04/04 11:52:04;;;;;;;13.00;9.25;;;;;;;12.94;32.10;100250.47;5092014;28;20028;-71
2022/04/04 11:54:41;;;;;;;11.75;8.68;;;;;;;13.24;33.98;100243.22;5090708;28;20036;-73
2022/04/04 11:57:08;;;;;;;13.45;7.60;;;;;;;13.01;34.11;100238.81;5074595;28;20047;-74
2022/04/04 11:59:42;;;;;;;13.07;8.20;;;;;;;13.42;34.12;100237.41;5091424;28;20428;-73
2022/04/04 12:02:13;;;;;;;11.00;8.27;;;;;;;13.34;31.00;100224.16;5091717;28;20043;-73
2022/04/04 12:04:40;;;;;;;11.18;8.18;;;;;;;13.43;31.47;100218.50;5091888;28;20035;-73
2022/04/04 12:07:08;;;;;;;12.70;8.43;;;;;;;13.61;33.55;100215.34;5092250;28;20028;-72
2022/04/04 12:09:36;;;;;;;11.95;8.15;;;;;;;13.92;32.34;100224.84;5092062;28;20416;-72
2022/04/04 12:12:10;;;;;;;11.65;8.25;;;;;;;13.45;30.59;100213.78;5091361;28;20462;-72
2022/04/04 12:14:40;;;;;;;14.23;8.52;;;;;;;12.57;31.87;100198.84;5091744;28;20451;-72
2022/04/04 12:17:14;;;;;;;9.77;7.88;;;;;;;13.30;32.74;100204.97;5091532;28;20369;-73
2022/04/04 12:19:50;;;;;;;10.00;7.72;;;;;;;13.24;31.11;100184.38;5090406;28;20044;-72
2022/04/04 12:25:01;;;;;;;8.55;6.78;;;;;;;14.72;30.47;100178.69;5091478;28;20389;-72
2022/04/04 12:27:28;;;;;;;11.07;7.88;;;;;;;14.67;31.45;100170.44;5090163;28;20032;-72
2022/04/04 12:30:03;;;;;;;12.02;9.05;;;;;;;14.49;29.47;100168.31;5091525;28;20385;-72
2022/04/04 12:32:38;;;;;;;11.80;8.05;;;;;;;14.24;29.85;100165.28;5091101;28;20036;-71
2022/04/04 12:35:06;;;;;;;10.95;7.70;;;;;;;14.69;29.34;100165.69;5091479;28;20539;-72
2022/04/04 12:37:51;;;;;;;;;;;;;;;13.61;29.10;100163.66;5090597;28;20048;-72
2022/04/04 12:40:25;;;;;;;9.75;7.30;;;;;;;14.22;30.22;100155.81;5091350;28;19916;-72
2022/04/04 12:43:03;;;;;;;10.55;8.50;;;;;;;14.36;29.29;100155.66;5092396;28;20043;-72
2022/04/04 12:45:31;;;;;;;9.88;7.47;;;;;;;13.64;29.35;100158.75;5095411;28;20044;-72
2022/04/04 12:48:00;;;;;;;12.23;7.22;;;;;;;14.23;28.89;100144.88;5094847;28;20042;-72
2022/04/04 12:50:47;;;;;;;10.90;7.53;;;;;;;13.98;29.65;100144.56;5094283;28;20040;-72
2022/04/04 12:53:13;;;;;;;10.20;7.60;;;;;;;14.21;28.74;100149.59;5094691;28;20396;-72
2022/04/04 12:55:43;;;;;;;11.65;7.43;;;;;;;14.28;29.22;100154.97;5093904;28;20052;-72
2022/04/04 12:58:14;;;;;;;9.23;7.32;;;;;;;14.17;29.67;100134.16;5093926;28;20032;-73
2022/04/04 13:00:40;;;;;;;8.98;7.93;;;;;;;14.66;27.17;100131.25;5095285;28;20027;-72
2022/04/04 13:03:27;;;;;;;9.38;6.93;;;;;;;14.60;30.30;100134.72;5094987;28;20093;-72
2022/04/04 13:05:55;;;;;;;9.65;7.53;;;;;;;14.91;27.92;100116.22;5095271;28;20035;-72
2022/04/04 13:08:24;;;;;;;10.23;7.25;;;;;;;13.79;28.78;100108.59;5095160;28;20036;-72
2022/04/04 13:11:06;;;;;;;9.40;7.53;;;;;;;13.23;30.39;100103.28;5095024;28;20036;-72
2022/04/04 13:13:33;;;;;;;13.35;7.32;;;;;;;12.29;29.87;100110.56;5093570;28;20043;-71
2022/04/04 13:15:59;;;;;;;11.07;7.25;;;;;;;12.52;30.83;100102.41;5094126;28;20585;-71
2022/04/04 13:18:25;;;;;;;11.60;7.63;;;;;;;12.52;31.62;100102.41;5095060;28;20051;-72
2022/04/04 13:20:52;;;;;;;10.48;7.53;;;;;;;12.61;32.35;100098.59;5094605;28;20028;-72
2022/04/04 13:23:18;;;;;;;11.25;7.57;;;;;;;11.68;31.75;100092.09;5094369;28;20036;-72
2022/04/04 13:25:45;;;;;;;11.02;8.00;;;;;;;10.84;33.58;100093.25;5093313;28;20035;-72
2022/04/04 13:28:11;;;;;;;12.63;8.32;;;;;;;10.43;33.83;100100.66;5094875;28;20044;-71
2022/04/04 13:30:39;;;;;;;11.15;8.18;;;;;;;10.52;34.57;100096.97;5094530;28;20160;-71
2022/04/04 13:33:06;;;;;;;10.35;7.53;;;;;;;10.31;35.19;100084.28;5094205;28;20028;-72
2022/04/04 13:35:34;;;;;;;11.43;7.10;;;;;;;10.10;35.63;100089.31;5094344;28;20044;-71
2022/04/04 13:38:00;;;;;;;;;;;;;;;10.33;35.86;100076.94;5094836;28;20518;-71
2022/04/04 13:40:25;;;;;;;10.15;7.55;;;;;;;10.32;35.79;100077.94;5094382;28;20002;-71
2022/04/04 13:42:51;;;;;;;11.55;7.65;;;;;;;10.35;37.15;100082.06;5094187;28;20038;-72
2022/04/04 13:45:17;;;;;;;9.35;7.45;;;;;;;10.40;35.63;100079.72;5094264;28;20075;-71
2022/04/04 13:47:42;;;;;;;11.50;7.75;;;;;;;10.22;35.63;100063.97;5094298;28;20036;-71
2022/04/04 13:50:09;;;;;;;10.88;8.15;;;;;;;10.31;37.02;100053.16;5092933;28;20036;-71
2022/04/04 13:52:34;;;;;;;11.30;8.18;;;;;;;10.36;36.06;100047.28;5093935;28;20032;-72
2022/04/04 13:55:00;;;;;;;10.68;7.85;;;;;;;10.37;38.17;100048.09;5093649;28;20378;-71
2022/04/04 13:57:26;;;;;;;10.73;8.77;;;;;;;10.50;37.24;100043.88;5094094;28;20043;-72
2022/04/04 13:59:52;;;;;;;11.82;8.20;;;;;;;10.42;36.47;100054.56;5094207;28;20043;-71
2022/04/04 14:02:18;;;;;;;10.85;8.40;;;;;;;10.11;37.91;100064.41;5093847;28;20397;-71
2022/04/04 14:04:43;;;;;;;13.52;7.60;;;;;;;9.96;38.47;100045.66;5094036;28;20024;-70
2022/04/04 14:07:10;;;;;;;13.60;7.88;;;;;;;9.82;37.99;100036.56;5094108;28;20058;-71
2022/04/04 14:09:37;;;;;;;12.25;9.00;;;;;;;9.51;37.86;100049.81;5093758;28;20484;-71
2022/04/04 14:12:03;;;;;;;13.98;9.20;;;;;;;9.45;38.71;100034.56;5092302;28;20485;-72
2022/04/04 14:14:30;;;;;;;11.05;9.27;;;;;;;9.51;38.46;100037.34;5093693;28;20127;-70
2022/04/04 14:16:57;;;;;;;13.52;9.23;;;;;;;9.32;39.54;100042.22;5093728;28;20516;-71
2022/04/04 14:19:24;;;;;;;10.85;7.90;;;;;;;9.36;39.56;100036.41;5093441;28;20116;-71
2022/04/04 14:21:50;;;;;;;13.70;7.43;;;;;;;9.51;40.25;100045.34;5093211;28;20039;-71
2022/04/04 14:24:16;;;;;;;10.75;8.13;;;;;;;9.43;39.43;100040.03;5093622;28;20040;-73
2022/04/04 14:26:42;;;;;;;10.82;8.73;;;;;;;9.49;39.14;100023.41;5092329;28;20373;-70
2022/04/04 14:29:08;;;;;;;15.48;8.75;;;;;;;9.71;40.33;100029.78;5092379;28;20039;-72
2022/04/04 14:31:34;;;;;;;11.57;9.00;;;;;;;9.50;40.48;100045.50;5093249;28;20036;-70
2022/04/04 14:34:01;;;;;;;14.07;9.38;;;;;;;9.30;40.03;100029.13;5093773;28;20512;-71
2022/04/04 14:36:29;;;;;;;13.05;9.23;;;;;;;9.03;39.83;100032.16;5093879;28;20075;-71
2022/04/04 14:38:55;;;;;;;13.73;8.77;;;;;;;9.11;39.85;100021.53;5093956;28;20028;-71
2022/04/04 14:41:21;;;;;;;12.77;9.40;;;;;;;9.18;40.52;100030.47;5093565;28;20028;-72
2022/04/04 14:43:47;;;;;;;13.45;9.20;;;;;;;9.18;40.63;100019.84;5093301;28;20055;-71
2022/04/04 14:46:14;;;;;;;13.10;8.38;;;;;;;9.05;40.67;99995.63;5091769;28;20113;-71
2022/04/04 14:48:51;;;;;;;11.77;8.38;;;;;;;9.25;41.35;100000.38;5093007;28;20039;-71
2022/04/04 14:51:17;;;;;;;11.40;8.32;;;;;;;9.22;40.96;99994.59;5093130;28;20482;-70
2022/04/04 14:53:43;;;;;;;13.05;8.73;;;;;;;9.31;41.50;99993.56;5091775;28;20028;-72
2022/04/04 14:56:11;;;;;;;10.88;7.72;;;;;;;9.46;40.75;99993.69;5092752;28;20333;-70
2022/04/04 14:58:37;;;;;;;10.07;7.88;;;;;;;9.42;40.44;99995.84;5092888;28;20092;-71
2022/04/04 15:01:03;;;;;;;12.40;7.78;;;;;;;9.51;40.53;99992.16;5092804;28;20512;-72
2022/04/04 15:03:29;;;;;;;11.52;7.93;;;;;;;9.51;40.33;99986.00;5092420;28;20056;-72
2022/04/04 15:05:55;;;;;;;11.57;8.30;;;;;;;9.54;39.69;99980.38;5091842;28;20032;-70
2022/04/04 15:08:20;;;;;;;10.98;7.90;;;;;;;9.51;39.97;99981.50;5092717;28;20040;-71
2022/04/04 15:10:46;;;;;;;9.73;7.13;;;;;;;9.61;40.40;99978.66;5092512;28;20080;-72
2022/04/04 15:13:12;;;;;;;10.40;7.60;;;;;;;9.56;39.68;99978.34;5092199;28;20085;-72
2022/04/04 15:15:38;;;;;;;11.75;8.40;;;;;;;9.54;40.69;99971.56;5092349;28;20047;-72
2022/04/04 15:18:04;;;;;;;11.40;7.70;;;;;;;9.52;39.99;99980.53;5074215;28;20040;-71
2022/04/04 15:20:30;;;;;;;9.82;7.80;;;;;;;9.46;39.88;99964.44;5092302;28;20153;-71
2022/04/04 15:22:56;;;;;;;10.00;8.27;;;;;;;9.33;41.07;99964.16;5092451;28;20056;-71
2022/04/04 15:25:22;;;;;;;11.40;8.35;;;;;;;9.27;41.13;99965.69;5092506;28;20039;-72
2022/04/04 15:27:49;;;;;;;11.85;8.02;;;;;;;9.19;40.88;99953.25;5092719;28;20050;-71
2022/04/04 15:30:17;;;;;;;11.05;7.70;;;;;;;9.17;40.60;99952.56;5092491;28;20032;-71
2022/04/04 15:32:43;;;;;;;;;;;;;;;9.22;41.59;99952.06;5092576;28;20389;-72
2022/04/04 15:35:09;;;;;;;11.07;8.02;;;;;;;9.07;41.79;99945.81;5092357;28;19916;-72
2022/04/04 15:37:37;;;;;;;9.80;7.03;;;;;;;9.05;41.90;99951.28;5092228;28;20036;-72
2022/04/04 15:40:04;;;;;;;9.70;7.75;;;;;;;9.06;42.48;99933.50;5092306;28;20458;-71
2022/04/04 15:42:30;;;;;;;15.77;8.77;;;;;;;9.02;41.21;99941.00;5092123;28;20366;-72
2022/04/04 15:44:55;;;;;;;10.50;7.97;;;;;;;9.01;42.19;99942.00;5092195;28;20032;-72
2022/04/04 15:47:21;;;;;;;13.77;8.85;;;;;;;9.02;41.82;99932.22;5092140;28;20036;-73
2022/04/04 15:49:47;;;;;;;10.23;7.50;;;;;;;9.12;42.42;99946.94;5092087;28;20136;-71
2022/04/04 15:52:14;;;;;;;10.82;8.07;;;;;;;8.86;40.95;99941.84;5091708;28;20134;-73
2022/04/04 15:54:41;;;;;;;9.43;7.55;;;;;;;8.97;41.58;99944.16;5091952;28;20111;-75